sensor_id;sensor_type;location;lat;lon;timestamp;P1;durP1;ratioP1;P2;durP2;ratioP2
10041;SDS011;5061;49.068;12.058;2023-05-07T00:02:54;1.63;;;1.53;;
10041;SDS011;5061;49.068;12.058;2023-05-07T00:06:14;1.97;;;1.80;;
10041;SDS011;5061;49.068;12.058;2023-05-07T00:09:36;1.70;;;1.60;;
10041;SDS011;5061;49.068;12.058;2023-05-07T00:12:57;1.50;;;1.40;;
10041;SDS011;5061;49.068;12.058;2023-05-07T00:16:18;1.70;;;1.60;;
10041;SDS011;5061;49.068;12.058;2023-05-07T00:19:39;3.07;;;1.40;;
10041;SDS011;5061;49.068;12.058;2023-05-07T00:23:01;2.20;;;2.00;;
10041;SDS011;5061;49.068;12.058;2023-05-07T00:26:25;3.50;;;2.00;;
10041;SDS011;5061;49.068;12.058;2023-05-07T00:29:46;2.60;;;2.27;;
10041;SDS011;5061;49.068;12.058;2023-05-07T00:33:07;2.20;;;2.00;;
10041;SDS011;5061;49.068;12.058;2023-05-07T00:36:29;2.70;;;2.50;;
10041;SDS011;5061;49.068;12.058;2023-05-07T00:39:50;2.40;;;2.20;;
10041;SDS011;5061;49.068;12.058;2023-05-07T00:43:12;3.47;;;2.07;;
10041;SDS011;5061;49.068;12.058;2023-05-07T00:46:36;2.70;;;1.90;;
10041;SDS011;5061;49.068;12.058;2023-05-07T00:50:00;3.40;;;2.00;;
10041;SDS011;5061;49.068;12.058;2023-05-07T00:53:21;3.00;;;2.70;;
10041;SDS011;5061;49.068;12.058;2023-05-07T00:56:42;2.47;;;2.27;;
10041;SDS011;5061;49.068;12.058;2023-05-07T01:00:07;2.50;;;2.30;;
10041;SDS011;5061;49.068;12.058;2023-05-07T01:03:29;3.13;;;2.40;;
10041;SDS011;5061;49.068;12.058;2023-05-07T01:06:51;2.53;;;2.33;;
10041;SDS011;5061;49.068;12.058;2023-05-07T01:10:16;3.10;;;2.80;;
10041;SDS011;5061;49.068;12.058;2023-05-07T01:13:41;2.93;;;2.67;;
10041;SDS011;5061;49.068;12.058;2023-05-07T01:17:03;3.03;;;2.40;;
10041;SDS011;5061;49.068;12.058;2023-05-07T01:20:24;2.83;;;2.53;;
10041;SDS011;5061;49.068;12.058;2023-05-07T01:23:46;3.60;;;2.70;;
10041;SDS011;5061;49.068;12.058;2023-05-07T01:27:11;3.00;;;2.70;;
10041;SDS011;5061;49.068;12.058;2023-05-07T01:30:32;3.63;;;3.03;;
10041;SDS011;5061;49.068;12.058;2023-05-07T01:33:54;3.70;;;2.63;;
10041;SDS011;5061;49.068;12.058;2023-05-07T01:37:19;5.57;;;4.40;;
10041;SDS011;5061;49.068;12.058;2023-05-07T01:40:41;3.33;;;3.03;;
10041;SDS011;5061;49.068;12.058;2023-05-07T01:44:03;3.00;;;2.60;;
10041;SDS011;5061;49.068;12.058;2023-05-07T01:47:26;3.67;;;3.37;;
10041;SDS011;5061;49.068;12.058;2023-05-07T01:50:47;4.50;;;3.27;;
10041;SDS011;5061;49.068;12.058;2023-05-07T01:54:09;3.93;;;3.20;;
10041;SDS011;5061;49.068;12.058;2023-05-07T01:57:30;3.53;;;2.90;;
10041;SDS011;5061;49.068;12.058;2023-05-07T02:00:52;3.03;;;2.73;;
10041;SDS011;5061;49.068;12.058;2023-05-07T02:04:13;3.40;;;3.10;;
10041;SDS011;5061;49.068;12.058;2023-05-07T02:07:34;3.80;;;3.40;;
10041;SDS011;5061;49.068;12.058;2023-05-07T02:10:55;4.10;;;3.03;;
10041;SDS011;5061;49.068;12.058;2023-05-07T02:14:17;4.10;;;2.73;;
10041;SDS011;5061;49.068;12.058;2023-05-07T02:17:57;3.30;;;3.00;;
10041;SDS011;5061;49.068;12.058;2023-05-07T02:21:22;4.57;;;3.97;;
10041;SDS011;5061;49.068;12.058;2023-05-07T02:24:44;3.43;;;3.13;;
10041;SDS011;5061;49.068;12.058;2023-05-07T02:28:05;4.63;;;3.30;;
10041;SDS011;5061;49.068;12.058;2023-05-07T02:31:26;4.43;;;3.43;;
10041;SDS011;5061;49.068;12.058;2023-05-07T02:34:49;4.57;;;3.50;;
10041;SDS011;5061;49.068;12.058;2023-05-07T02:38:11;5.73;;;3.80;;
10041;SDS011;5061;49.068;12.058;2023-05-07T02:41:32;3.80;;;3.37;;
10041;SDS011;5061;49.068;12.058;2023-05-07T02:44:54;3.70;;;3.40;;
10041;SDS011;5061;49.068;12.058;2023-05-07T02:48:15;5.00;;;3.83;;
10041;SDS011;5061;49.068;12.058;2023-05-07T02:51:36;5.80;;;3.43;;
10041;SDS011;5061;49.068;12.058;2023-05-07T02:55:00;7.23;;;4.33;;
10041;SDS011;5061;49.068;12.058;2023-05-07T02:58:21;6.20;;;4.00;;
10041;SDS011;5061;49.068;12.058;2023-05-07T03:01:43;4.30;;;3.80;;
10041;SDS011;5061;49.068;12.058;2023-05-07T03:05:05;4.93;;;4.50;;
10041;SDS011;5061;49.068;12.058;2023-05-07T03:08:27;4.23;;;3.80;;
10041;SDS011;5061;49.068;12.058;2023-05-07T03:11:48;7.80;;;5.33;;
10041;SDS011;5061;49.068;12.058;2023-05-07T03:15:10;5.40;;;4.40;;
10041;SDS011;5061;49.068;12.058;2023-05-07T03:18:34;3.80;;;3.43;;
10041;SDS011;5061;49.068;12.058;2023-05-07T03:21:55;5.77;;;4.00;;
10041;SDS011;5061;49.068;12.058;2023-05-07T03:25:16;4.57;;;4.07;;
10041;SDS011;5061;49.068;12.058;2023-05-07T03:28:37;5.30;;;4.17;;
10041;SDS011;5061;49.068;12.058;2023-05-07T03:32:01;6.03;;;4.77;;
10041;SDS011;5061;49.068;12.058;2023-05-07T03:35:22;7.60;;;4.50;;
10041;SDS011;5061;49.068;12.058;2023-05-07T03:38:43;5.50;;;4.40;;
10041;SDS011;5061;49.068;12.058;2023-05-07T03:42:05;10.67;;;4.60;;
10041;SDS011;5061;49.068;12.058;2023-05-07T03:45:26;6.53;;;4.40;;
10041;SDS011;5061;49.068;12.058;2023-05-07T03:48:46;6.77;;;4.60;;
10041;SDS011;5061;49.068;12.058;2023-05-07T03:52:08;6.53;;;4.60;;
10041;SDS011;5061;49.068;12.058;2023-05-07T03:55:29;7.17;;;5.17;;
10041;SDS011;5061;49.068;12.058;2023-05-07T03:58:51;5.40;;;4.40;;
10041;SDS011;5061;49.068;12.058;2023-05-07T04:02:12;5.03;;;4.07;;
10041;SDS011;5061;49.068;12.058;2023-05-07T04:05:33;4.63;;;3.97;;
10041;SDS011;5061;49.068;12.058;2023-05-07T04:08:54;4.37;;;3.97;;
10041;SDS011;5061;49.068;12.058;2023-05-07T04:12:16;6.60;;;4.60;;
10041;SDS011;5061;49.068;12.058;2023-05-07T04:15:37;6.27;;;4.73;;
10041;SDS011;5061;49.068;12.058;2023-05-07T04:18:58;4.27;;;3.87;;
10041;SDS011;5061;49.068;12.058;2023-05-07T04:22:19;5.63;;;4.30;;
10041;SDS011;5061;49.068;12.058;2023-05-07T04:25:40;5.80;;;4.67;;
10041;SDS011;5061;49.068;12.058;2023-05-07T04:29:01;4.83;;;4.33;;
10041;SDS011;5061;49.068;12.058;2023-05-07T04:32:23;6.50;;;5.23;;
10041;SDS011;5061;49.068;12.058;2023-05-07T04:35:45;5.67;;;4.43;;
10041;SDS011;5061;49.068;12.058;2023-05-07T04:39:06;5.30;;;4.77;;
10041;SDS011;5061;49.068;12.058;2023-05-07T04:42:27;6.20;;;4.70;;
10041;SDS011;5061;49.068;12.058;2023-05-07T04:45:49;6.97;;;4.27;;
10041;SDS011;5061;49.068;12.058;2023-05-07T04:49:11;5.17;;;4.67;;
10041;SDS011;5061;49.068;12.058;2023-05-07T04:52:32;4.67;;;4.10;;
10041;SDS011;5061;49.068;12.058;2023-05-07T04:55:54;5.87;;;4.60;;
10041;SDS011;5061;49.068;12.058;2023-05-07T04:59:17;6.23;;;4.73;;
10041;SDS011;5061;49.068;12.058;2023-05-07T05:02:38;5.20;;;4.37;;
10041;SDS011;5061;49.068;12.058;2023-05-07T05:05:59;5.43;;;4.23;;
10041;SDS011;5061;49.068;12.058;2023-05-07T05:09:21;5.30;;;4.80;;
10041;SDS011;5061;49.068;12.058;2023-05-07T05:12:42;5.13;;;4.40;;
10041;SDS011;5061;49.068;12.058;2023-05-07T05:16:04;4.50;;;4.00;;
10041;SDS011;5061;49.068;12.058;2023-05-07T05:19:26;5.50;;;3.90;;
10041;SDS011;5061;49.068;12.058;2023-05-07T05:22:47;4.80;;;4.23;;
10041;SDS011;5061;49.068;12.058;2023-05-07T05:26:08;4.30;;;3.67;;
10041;SDS011;5061;49.068;12.058;2023-05-07T05:29:30;4.33;;;3.80;;
10041;SDS011;5061;49.068;12.058;2023-05-07T05:32:51;3.67;;;3.37;;
10041;SDS011;5061;49.068;12.058;2023-05-07T05:36:12;4.67;;;4.17;;
10041;SDS011;5061;49.068;12.058;2023-05-07T05:39:33;5.10;;;4.00;;
10041;SDS011;5061;49.068;12.058;2023-05-07T05:42:54;5.07;;;4.20;;
10041;SDS011;5061;49.068;12.058;2023-05-07T05:46:15;4.50;;;4.10;;
10041;SDS011;5061;49.068;12.058;2023-05-07T05:49:37;4.20;;;3.73;;
10041;SDS011;5061;49.068;12.058;2023-05-07T05:53:01;5.30;;;4.30;;
10041;SDS011;5061;49.068;12.058;2023-05-07T05:56:22;5.20;;;4.10;;
10041;SDS011;5061;49.068;12.058;2023-05-07T05:59:43;4.90;;;3.90;;
10041;SDS011;5061;49.068;12.058;2023-05-07T06:03:05;4.07;;;3.60;;
10041;SDS011;5061;49.068;12.058;2023-05-07T06:06:26;5.03;;;4.47;;
10041;SDS011;5061;49.068;12.058;2023-05-07T06:09:47;4.03;;;3.63;;
10041;SDS011;5061;49.068;12.058;2023-05-07T06:13:08;5.00;;;4.03;;
10041;SDS011;5061;49.068;12.058;2023-05-07T06:16:30;6.17;;;4.57;;
10041;SDS011;5061;49.068;12.058;2023-05-07T06:19:51;4.00;;;3.60;;
10041;SDS011;5061;49.068;12.058;2023-05-07T06:23:13;3.93;;;3.53;;
10041;SDS011;5061;49.068;12.058;2023-05-07T06:26:34;4.50;;;4.10;;
10041;SDS011;5061;49.068;12.058;2023-05-07T06:29:56;3.33;;;3.00;;
10041;SDS011;5061;49.068;12.058;2023-05-07T06:33:17;4.10;;;3.40;;
10041;SDS011;5061;49.068;12.058;2023-05-07T06:36:40;3.40;;;3.10;;
10041;SDS011;5061;49.068;12.058;2023-05-07T06:40:01;4.70;;;3.50;;
10041;SDS011;5061;49.068;12.058;2023-05-07T06:43:23;4.17;;;3.47;;
10041;SDS011;5061;49.068;12.058;2023-05-07T06:46:44;5.90;;;4.63;;
10041;SDS011;5061;49.068;12.058;2023-05-07T06:50:05;4.93;;;3.60;;
10041;SDS011;5061;49.068;12.058;2023-05-07T06:53:27;4.13;;;3.63;;
10041;SDS011;5061;49.068;12.058;2023-05-07T06:56:49;3.77;;;3.47;;
10041;SDS011;5061;49.068;12.058;2023-05-07T07:00:10;3.23;;;2.93;;
10041;SDS011;5061;49.068;12.058;2023-05-07T07:03:32;4.17;;;3.73;;
10041;SDS011;5061;49.068;12.058;2023-05-07T07:06:53;3.93;;;3.20;;
10041;SDS011;5061;49.068;12.058;2023-05-07T07:10:15;3.43;;;3.13;;
10041;SDS011;5061;49.068;12.058;2023-05-07T07:13:36;4.07;;;3.47;;
10041;SDS011;5061;49.068;12.058;2023-05-07T07:16:57;3.50;;;3.20;;
10041;SDS011;5061;49.068;12.058;2023-05-07T07:20:19;4.47;;;3.97;;
10041;SDS011;5061;49.068;12.058;2023-05-07T07:23:39;5.20;;;3.97;;
10041;SDS011;5061;49.068;12.058;2023-05-07T07:27:01;4.47;;;3.57;;
10041;SDS011;5061;49.068;12.058;2023-05-07T07:30:22;3.80;;;3.40;;
10041;SDS011;5061;49.068;12.058;2023-05-07T07:33:44;3.77;;;3.47;;
10041;SDS011;5061;49.068;12.058;2023-05-07T07:37:05;5.27;;;3.70;;
10041;SDS011;5061;49.068;12.058;2023-05-07T07:40:27;5.30;;;3.90;;
10041;SDS011;5061;49.068;12.058;2023-05-07T07:43:48;3.97;;;3.57;;
10041;SDS011;5061;49.068;12.058;2023-05-07T07:47:09;4.80;;;4.00;;
10041;SDS011;5061;49.068;12.058;2023-05-07T07:50:31;3.80;;;3.50;;
10041;SDS011;5061;49.068;12.058;2023-05-07T07:53:52;4.00;;;3.70;;
10041;SDS011;5061;49.068;12.058;2023-05-07T07:57:13;6.00;;;3.90;;
10041;SDS011;5061;49.068;12.058;2023-05-07T08:00:35;5.67;;;4.07;;
10041;SDS011;5061;49.068;12.058;2023-05-07T08:03:56;4.93;;;4.43;;
10041;SDS011;5061;49.068;12.058;2023-05-07T08:07:18;5.27;;;4.20;;
10041;SDS011;5061;49.068;12.058;2023-05-07T08:10:40;4.70;;;4.03;;
10041;SDS011;5061;49.068;12.058;2023-05-07T08:14:01;4.10;;;3.70;;
10041;SDS011;5061;49.068;12.058;2023-05-07T08:17:22;3.80;;;3.50;;
10041;SDS011;5061;49.068;12.058;2023-05-07T08:20:44;4.40;;;3.97;;
10041;SDS011;5061;49.068;12.058;2023-05-07T08:24:05;4.53;;;3.80;;
10041;SDS011;5061;49.068;12.058;2023-05-07T08:27:27;3.80;;;3.03;;
10041;SDS011;5061;49.068;12.058;2023-05-07T08:30:48;3.60;;;3.03;;
10041;SDS011;5061;49.068;12.058;2023-05-07T08:34:12;4.00;;;3.70;;
10041;SDS011;5061;49.068;12.058;2023-05-07T08:37:33;4.30;;;3.90;;
10041;SDS011;5061;49.068;12.058;2023-05-07T08:40:54;4.23;;;3.23;;
10041;SDS011;5061;49.068;12.058;2023-05-07T08:44:15;4.03;;;3.63;;
10041;SDS011;5061;49.068;12.058;2023-05-07T08:47:46;3.13;;;2.83;;
10041;SDS011;5061;49.068;12.058;2023-05-07T08:51:16;4.77;;;3.50;;
10041;SDS011;5061;49.068;12.058;2023-05-07T08:54:39;3.43;;;3.00;;
10041;SDS011;5061;49.068;12.058;2023-05-07T08:58:01;5.73;;;3.17;;
10041;SDS011;5061;49.068;12.058;2023-05-07T09:01:22;4.97;;;3.33;;
10041;SDS011;5061;49.068;12.058;2023-05-07T09:04:44;3.80;;;3.50;;
10041;SDS011;5061;49.068;12.058;2023-05-07T09:08:06;3.40;;;3.10;;
10041;SDS011;5061;49.068;12.058;2023-05-07T09:11:28;4.03;;;3.10;;
10041;SDS011;5061;49.068;12.058;2023-05-07T09:14:50;3.73;;;3.30;;
10041;SDS011;5061;49.068;12.058;2023-05-07T09:18:13;3.03;;;2.83;;
10041;SDS011;5061;49.068;12.058;2023-05-07T09:21:35;3.70;;;2.80;;
10041;SDS011;5061;49.068;12.058;2023-05-07T09:24:56;4.33;;;3.73;;
10041;SDS011;5061;49.068;12.058;2023-05-07T09:28:17;3.83;;;3.47;;
10041;SDS011;5061;49.068;12.058;2023-05-07T09:31:39;3.37;;;3.07;;
10041;SDS011;5061;49.068;12.058;2023-05-07T09:35:00;3.60;;;3.17;;
10041;SDS011;5061;49.068;12.058;2023-05-07T09:38:22;4.33;;;3.63;;
10041;SDS011;5061;49.068;12.058;2023-05-07T09:41:44;5.60;;;4.47;;
10041;SDS011;5061;49.068;12.058;2023-05-07T09:45:09;4.20;;;3.30;;
10041;SDS011;5061;49.068;12.058;2023-05-07T09:48:31;5.47;;;3.90;;
10041;SDS011;5061;49.068;12.058;2023-05-07T09:51:55;5.00;;;4.23;;
10041;SDS011;5061;49.068;12.058;2023-05-07T09:55:18;3.80;;;3.47;;
10041;SDS011;5061;49.068;12.058;2023-05-07T09:58:40;4.23;;;3.60;;
10041;SDS011;5061;49.068;12.058;2023-05-07T10:02:03;3.80;;;3.50;;
10041;SDS011;5061;49.068;12.058;2023-05-07T10:05:26;4.70;;;3.43;;
10041;SDS011;5061;49.068;12.058;2023-05-07T10:08:47;8.00;;;4.50;;
10041;SDS011;5061;49.068;12.058;2023-05-07T10:12:09;4.70;;;4.20;;
10041;SDS011;5061;49.068;12.058;2023-05-07T10:15:31;4.70;;;3.93;;
10041;SDS011;5061;49.068;12.058;2023-05-07T10:18:52;3.73;;;3.40;;
10041;SDS011;5061;49.068;12.058;2023-05-07T10:22:14;4.23;;;3.80;;
10041;SDS011;5061;49.068;12.058;2023-05-07T10:25:36;4.77;;;3.63;;
10041;SDS011;5061;49.068;12.058;2023-05-07T10:28:59;3.63;;;3.33;;
10041;SDS011;5061;49.068;12.058;2023-05-07T10:36:01;3.80;;;3.50;;
10041;SDS011;5061;49.068;12.058;2023-05-07T10:39:24;3.20;;;2.90;;
10041;SDS011;5061;49.068;12.058;2023-05-07T10:43:01;4.53;;;4.13;;
10041;SDS011;5061;49.068;12.058;2023-05-07T10:46:26;4.50;;;3.97;;
10041;SDS011;5061;49.068;12.058;2023-05-07T10:56:39;3.57;;;3.27;;
10041;SDS011;5061;49.068;12.058;2023-05-07T11:00:03;5.73;;;3.70;;
10041;SDS011;5061;49.068;12.058;2023-05-07T11:04:30;3.20;;;2.90;;
10041;SDS011;5061;49.068;12.058;2023-05-07T11:07:33;4.70;;;3.20;;
10041;SDS011;5061;49.068;12.058;2023-05-07T11:10:55;3.47;;;3.17;;
10041;SDS011;5061;49.068;12.058;2023-05-07T11:18:06;2.70;;;2.40;;
10041;SDS011;5061;49.068;12.058;2023-05-07T11:25:02;2.50;;;2.30;;
10041;SDS011;5061;49.068;12.058;2023-05-07T11:28:24;3.37;;;3.07;;
10041;SDS011;5061;49.068;12.058;2023-05-07T11:31:51;4.67;;;3.57;;
10041;SDS011;5061;49.068;12.058;2023-05-07T11:35:13;3.10;;;2.57;;
10041;SDS011;5061;49.068;12.058;2023-05-07T11:38:38;2.27;;;2.10;;
10041;SDS011;5061;49.068;12.058;2023-05-07T11:41:59;3.00;;;2.67;;
10041;SDS011;5061;49.068;12.058;2023-05-07T11:45:24;3.33;;;3.03;;
10041;SDS011;5061;49.068;12.058;2023-05-07T11:48:45;2.60;;;2.40;;
10041;SDS011;5061;49.068;12.058;2023-05-07T11:52:07;2.67;;;2.47;;
10041;SDS011;5061;49.068;12.058;2023-05-07T11:55:28;3.20;;;2.90;;
10041;SDS011;5061;49.068;12.058;2023-05-07T11:58:49;2.83;;;2.60;;
10041;SDS011;5061;49.068;12.058;2023-05-07T12:02:13;2.27;;;2.07;;
10041;SDS011;5061;49.068;12.058;2023-05-07T12:05:35;2.90;;;2.60;;
10041;SDS011;5061;49.068;12.058;2023-05-07T12:08:57;3.10;;;2.87;;
10041;SDS011;5061;49.068;12.058;2023-05-07T12:12:18;3.37;;;3.03;;
10041;SDS011;5061;49.068;12.058;2023-05-07T12:15:39;2.47;;;2.27;;
10041;SDS011;5061;49.068;12.058;2023-05-07T12:19:00;3.10;;;2.80;;
10041;SDS011;5061;49.068;12.058;2023-05-07T12:22:23;2.83;;;2.63;;
10041;SDS011;5061;49.068;12.058;2023-05-07T12:25:44;3.10;;;2.70;;
10041;SDS011;5061;49.068;12.058;2023-05-07T12:29:08;2.50;;;1.90;;
10041;SDS011;5061;49.068;12.058;2023-05-07T12:32:29;2.03;;;1.93;;
10041;SDS011;5061;49.068;12.058;2023-05-07T12:35:50;1.70;;;1.60;;
10041;SDS011;5061;49.068;12.058;2023-05-07T12:39:16;2.00;;;1.90;;
10041;SDS011;5061;49.068;12.058;2023-05-07T12:42:38;2.13;;;1.93;;
10041;SDS011;5061;49.068;12.058;2023-05-07T12:46:03;3.03;;;2.30;;
10041;SDS011;5061;49.068;12.058;2023-05-07T12:49:25;3.33;;;2.77;;
10041;SDS011;5061;49.068;12.058;2023-05-07T12:52:47;2.47;;;2.27;;
10041;SDS011;5061;49.068;12.058;2023-05-07T12:56:09;2.80;;;2.60;;
10041;SDS011;5061;49.068;12.058;2023-05-07T12:59:35;2.97;;;2.67;;
10041;SDS011;5061;49.068;12.058;2023-05-07T13:03:01;2.50;;;2.30;;
10041;SDS011;5061;49.068;12.058;2023-05-07T13:06:25;2.30;;;2.10;;
10041;SDS011;5061;49.068;12.058;2023-05-07T13:09:51;2.97;;;2.77;;
10041;SDS011;5061;49.068;12.058;2023-05-07T13:13:17;2.47;;;2.27;;
10041;SDS011;5061;49.068;12.058;2023-05-07T13:16:39;2.27;;;2.07;;
10041;SDS011;5061;49.068;12.058;2023-05-07T13:20:00;2.07;;;1.90;;
10041;SDS011;5061;49.068;12.058;2023-05-07T13:23:22;2.27;;;1.93;;
10041;SDS011;5061;49.068;12.058;2023-05-07T13:26:43;2.20;;;2.00;;
10041;SDS011;5061;49.068;12.058;2023-05-07T13:30:04;1.53;;;1.43;;
10041;SDS011;5061;49.068;12.058;2023-05-07T13:33:25;1.90;;;1.80;;
10041;SDS011;5061;49.068;12.058;2023-05-07T13:36:52;2.40;;;2.17;;
10041;SDS011;5061;49.068;12.058;2023-05-07T13:40:13;1.87;;;1.77;;
10041;SDS011;5061;49.068;12.058;2023-05-07T13:43:35;1.87;;;1.70;;
10041;SDS011;5061;49.068;12.058;2023-05-07T13:46:56;1.97;;;1.53;;
10041;SDS011;5061;49.068;12.058;2023-05-07T13:50:17;2.20;;;2.00;;
10041;SDS011;5061;49.068;12.058;2023-05-07T13:53:38;3.50;;;2.20;;
10041;SDS011;5061;49.068;12.058;2023-05-07T13:56:59;2.50;;;1.97;;
10041;SDS011;5061;49.068;12.058;2023-05-07T14:00:24;2.10;;;1.90;;
10041;SDS011;5061;49.068;12.058;2023-05-07T14:03:46;2.50;;;2.30;;
10041;SDS011;5061;49.068;12.058;2023-05-07T14:07:07;2.13;;;1.93;;
10041;SDS011;5061;49.068;12.058;2023-05-07T14:10:28;1.70;;;1.50;;
10041;SDS011;5061;49.068;12.058;2023-05-07T14:13:50;1.80;;;1.60;;
10041;SDS011;5061;49.068;12.058;2023-05-07T14:17:12;1.67;;;1.57;;
10041;SDS011;5061;49.068;12.058;2023-05-07T14:20:33;1.50;;;1.40;;
10041;SDS011;5061;49.068;12.058;2023-05-07T14:23:56;1.73;;;1.50;;
10041;SDS011;5061;49.068;12.058;2023-05-07T14:27:17;2.10;;;1.50;;
10041;SDS011;5061;49.068;12.058;2023-05-07T14:30:38;2.20;;;1.50;;
10041;SDS011;5061;49.068;12.058;2023-05-07T14:33:59;1.63;;;1.53;;
10041;SDS011;5061;49.068;12.058;2023-05-07T14:37:20;2.40;;;1.53;;
10041;SDS011;5061;49.068;12.058;2023-05-07T14:40:41;1.23;;;1.13;;
10041;SDS011;5061;49.068;12.058;2023-05-07T14:44:02;1.80;;;1.70;;
10041;SDS011;5061;49.068;12.058;2023-05-07T14:47:24;1.87;;;1.67;;
10041;SDS011;5061;49.068;12.058;2023-05-07T14:50:46;2.87;;;2.30;;
10041;SDS011;5061;49.068;12.058;2023-05-07T14:54:08;3.40;;;3.10;;
10041;SDS011;5061;49.068;12.058;2023-05-07T14:57:29;3.23;;;2.93;;
10041;SDS011;5061;49.068;12.058;2023-05-07T15:00:54;3.20;;;2.50;;
10041;SDS011;5061;49.068;12.058;2023-05-07T15:04:15;3.10;;;2.80;;
10041;SDS011;5061;49.068;12.058;2023-05-07T15:07:36;3.50;;;3.20;;
10041;SDS011;5061;49.068;12.058;2023-05-07T15:10:57;4.60;;;3.17;;
10041;SDS011;5061;49.068;12.058;2023-05-07T15:14:18;2.70;;;2.50;;
10041;SDS011;5061;49.068;12.058;2023-05-07T15:17:44;3.27;;;2.97;;
10041;SDS011;5061;49.068;12.058;2023-05-07T15:21:05;3.73;;;3.00;;
10041;SDS011;5061;49.068;12.058;2023-05-07T15:24:26;3.20;;;2.90;;
10041;SDS011;5061;49.068;12.058;2023-05-07T15:27:48;3.70;;;3.40;;
10041;SDS011;5061;49.068;12.058;2023-05-07T15:31:10;3.77;;;2.73;;
10041;SDS011;5061;49.068;12.058;2023-05-07T15:34:31;3.27;;;2.80;;
10041;SDS011;5061;49.068;12.058;2023-05-07T15:37:52;2.87;;;2.67;;
10041;SDS011;5061;49.068;12.058;2023-05-07T15:41:13;4.30;;;3.23;;
10041;SDS011;5061;49.068;12.058;2023-05-07T15:44:34;3.10;;;2.80;;
10041;SDS011;5061;49.068;12.058;2023-05-07T15:47:55;3.47;;;3.17;;
10041;SDS011;5061;49.068;12.058;2023-05-07T15:51:16;3.20;;;2.87;;
10041;SDS011;5061;49.068;12.058;2023-05-07T15:54:38;4.13;;;3.17;;
10041;SDS011;5061;49.068;12.058;2023-05-07T15:57:59;4.30;;;3.43;;
10041;SDS011;5061;49.068;12.058;2023-05-07T16:01:20;3.93;;;3.40;;
10041;SDS011;5061;49.068;12.058;2023-05-07T16:04:41;3.10;;;2.80;;
10041;SDS011;5061;49.068;12.058;2023-05-07T16:08:02;5.60;;;3.50;;
10041;SDS011;5061;49.068;12.058;2023-05-07T16:11:24;3.33;;;3.00;;
10041;SDS011;5061;49.068;12.058;2023-05-07T16:14:45;3.77;;;3.30;;
10041;SDS011;5061;49.068;12.058;2023-05-07T16:18:06;3.13;;;2.77;;
10041;SDS011;5061;49.068;12.058;2023-05-07T16:21:28;3.93;;;3.57;;
10041;SDS011;5061;49.068;12.058;2023-05-07T16:24:49;4.33;;;3.77;;
10041;SDS011;5061;49.068;12.058;2023-05-07T16:28:11;4.33;;;3.80;;
10041;SDS011;5061;49.068;12.058;2023-05-07T16:31:33;4.23;;;3.70;;
10041;SDS011;5061;49.068;12.058;2023-05-07T16:34:53;4.33;;;3.40;;
10041;SDS011;5061;49.068;12.058;2023-05-07T16:38:14;4.00;;;3.60;;
10041;SDS011;5061;49.068;12.058;2023-05-07T16:41:35;4.07;;;3.67;;
10041;SDS011;5061;49.068;12.058;2023-05-07T16:44:56;4.00;;;3.60;;
10041;SDS011;5061;49.068;12.058;2023-05-07T16:48:17;4.73;;;3.90;;
10041;SDS011;5061;49.068;12.058;2023-05-07T16:51:38;5.40;;;4.23;;
10041;SDS011;5061;49.068;12.058;2023-05-07T16:55:02;5.83;;;4.57;;
10041;SDS011;5061;49.068;12.058;2023-05-07T16:58:24;4.67;;;3.67;;
10041;SDS011;5061;49.068;12.058;2023-05-07T17:01:46;5.00;;;4.20;;
10041;SDS011;5061;49.068;12.058;2023-05-07T17:05:07;4.33;;;3.60;;
10041;SDS011;5061;49.068;12.058;2023-05-07T17:08:28;4.53;;;4.13;;
10041;SDS011;5061;49.068;12.058;2023-05-07T17:11:49;5.17;;;4.17;;
10041;SDS011;5061;49.068;12.058;2023-05-07T17:15:10;5.83;;;4.40;;
10041;SDS011;5061;49.068;12.058;2023-05-07T17:18:31;7.10;;;3.53;;
10041;SDS011;5061;49.068;12.058;2023-05-07T17:21:53;3.77;;;3.37;;
10041;SDS011;5061;49.068;12.058;2023-05-07T17:25:14;4.13;;;3.33;;
10041;SDS011;5061;49.068;12.058;2023-05-07T17:28:35;4.67;;;4.17;;
10041;SDS011;5061;49.068;12.058;2023-05-07T17:31:57;5.03;;;3.63;;
10041;SDS011;5061;49.068;12.058;2023-05-07T17:35:19;4.23;;;3.60;;
10041;SDS011;5061;49.068;12.058;2023-05-07T17:38:40;4.57;;;3.90;;
10041;SDS011;5061;49.068;12.058;2023-05-07T17:42:01;3.73;;;3.30;;
10041;SDS011;5061;49.068;12.058;2023-05-07T17:45:22;4.17;;;3.50;;
10041;SDS011;5061;49.068;12.058;2023-05-07T17:48:43;5.60;;;3.70;;
10041;SDS011;5061;49.068;12.058;2023-05-07T17:52:04;3.73;;;3.40;;
10041;SDS011;5061;49.068;12.058;2023-05-07T17:55:25;6.10;;;4.50;;
10041;SDS011;5061;49.068;12.058;2023-05-07T17:58:47;5.20;;;4.70;;
10041;SDS011;5061;49.068;12.058;2023-05-07T18:02:08;6.50;;;4.53;;
10041;SDS011;5061;49.068;12.058;2023-05-07T18:05:29;5.20;;;4.60;;
10041;SDS011;5061;49.068;12.058;2023-05-07T18:08:51;5.90;;;5.10;;
10041;SDS011;5061;49.068;12.058;2023-05-07T18:12:13;4.30;;;3.87;;
10041;SDS011;5061;49.068;12.058;2023-05-07T18:15:34;5.90;;;4.40;;
10041;SDS011;5061;49.068;12.058;2023-05-07T18:18:55;5.73;;;4.60;;
10041;SDS011;5061;49.068;12.058;2023-05-07T18:22:16;7.00;;;4.90;;
10041;SDS011;5061;49.068;12.058;2023-05-07T18:25:37;4.77;;;4.10;;
10041;SDS011;5061;49.068;12.058;2023-05-07T18:28:59;5.90;;;4.40;;
10041;SDS011;5061;49.068;12.058;2023-05-07T18:32:19;6.03;;;3.80;;
10041;SDS011;5061;49.068;12.058;2023-05-07T18:35:40;4.57;;;3.93;;
10041;SDS011;5061;49.068;12.058;2023-05-07T18:39:01;5.90;;;5.10;;
10041;SDS011;5061;49.068;12.058;2023-05-07T18:42:23;4.80;;;4.10;;
10041;SDS011;5061;49.068;12.058;2023-05-07T18:45:47;8.23;;;5.37;;
10041;SDS011;5061;49.068;12.058;2023-05-07T18:49:08;5.73;;;4.70;;
10041;SDS011;5061;49.068;12.058;2023-05-07T18:52:29;7.00;;;4.73;;
10041;SDS011;5061;49.068;12.058;2023-05-07T18:55:50;6.67;;;5.37;;
10041;SDS011;5061;49.068;12.058;2023-05-07T18:59:12;6.30;;;5.00;;
10041;SDS011;5061;49.068;12.058;2023-05-07T19:02:33;6.53;;;5.00;;
10041;SDS011;5061;49.068;12.058;2023-05-07T19:05:54;5.00;;;4.50;;
10041;SDS011;5061;49.068;12.058;2023-05-07T19:09:15;6.13;;;4.97;;
10041;SDS011;5061;49.068;12.058;2023-05-07T19:12:36;5.60;;;4.90;;
10041;SDS011;5061;49.068;12.058;2023-05-07T19:15:58;5.27;;;4.43;;
10041;SDS011;5061;49.068;12.058;2023-05-07T19:19:19;5.27;;;4.70;;
10041;SDS011;5061;49.068;12.058;2023-05-07T19:22:40;6.63;;;5.60;;
10041;SDS011;5061;49.068;12.058;2023-05-07T19:26:01;5.50;;;4.73;;
10041;SDS011;5061;49.068;12.058;2023-05-07T19:29:23;5.73;;;5.10;;
10041;SDS011;5061;49.068;12.058;2023-05-07T19:32:44;6.03;;;4.47;;
10041;SDS011;5061;49.068;12.058;2023-05-07T19:36:05;4.70;;;4.30;;
10041;SDS011;5061;49.068;12.058;2023-05-07T19:39:26;4.73;;;4.23;;
10041;SDS011;5061;49.068;12.058;2023-05-07T19:42:47;5.53;;;3.80;;
10041;SDS011;5061;49.068;12.058;2023-05-07T19:46:09;5.10;;;4.30;;
10041;SDS011;5061;49.068;12.058;2023-05-07T19:49:30;10.37;;;4.80;;
10041;SDS011;5061;49.068;12.058;2023-05-07T19:52:51;4.30;;;3.90;;
10041;SDS011;5061;49.068;12.058;2023-05-07T19:56:12;4.40;;;3.90;;
10041;SDS011;5061;49.068;12.058;2023-05-07T19:59:33;4.73;;;4.23;;
10041;SDS011;5061;49.068;12.058;2023-05-07T20:02:54;4.53;;;3.90;;
10041;SDS011;5061;49.068;12.058;2023-05-07T20:06:15;4.83;;;3.40;;
10041;SDS011;5061;49.068;12.058;2023-05-07T20:09:37;4.83;;;3.90;;
10041;SDS011;5061;49.068;12.058;2023-05-07T20:12:58;4.00;;;3.40;;
10041;SDS011;5061;49.068;12.058;2023-05-07T20:16:20;3.60;;;3.20;;
10041;SDS011;5061;49.068;12.058;2023-05-07T20:19:41;4.33;;;3.50;;
10041;SDS011;5061;49.068;12.058;2023-05-07T20:23:02;4.33;;;3.73;;
10041;SDS011;5061;49.068;12.058;2023-05-07T20:26:23;4.30;;;3.67;;
10041;SDS011;5061;49.068;12.058;2023-05-07T20:29:45;3.57;;;3.07;;
10041;SDS011;5061;49.068;12.058;2023-05-07T20:33:07;2.90;;;2.70;;
10041;SDS011;5061;49.068;12.058;2023-05-07T20:36:28;4.07;;;3.63;;